Time;durP1;ratioP1;P1;durP2;ratioP2;P2;SDS_P1;SDS_P2;PMS_P1;PMS_P2;Temp;Humidity;BMP_temperature;BMP_pressure;BME280_temperature;BME280_humidity;BME280_pressure;Samples;Min_cycle;Max_cycle;Signal;HPM_P1;HPM_P2
2021/05/11 00:00:58;;;;;;;9.23;7.57;;;14.00;99.90;;;;;;5018053;28;20053;-91
2021/05/11 00:03:24;;;;;;;9.27;7.38;;;13.90;99.90;;;;;;5034186;28;20470;-90
2021/05/11 00:05:51;;;;;;;9.35;7.53;;;14.00;99.90;;;;;;5033706;28;20045;-91
2021/05/11 00:08:18;;;;;;;9.50;7.93;;;13.90;99.90;;;;;;5017989;28;20061;-91
2021/05/11 00:10:45;;;;;;;9.45;8.18;;;13.90;99.90;;;;;;5017617;28;20045;-91
2021/05/11 00:13:12;;;;;;;12.73;8.70;;;13.90;99.90;;;;;;5017902;28;20050;-90
2021/05/11 00:15:39;;;;;;;10.40;8.77;;;13.90;99.90;;;;;;5034331;28;20048;-90
2021/05/11 00:18:06;;;;;;;10.57;8.93;;;13.90;99.90;;;;;;5017394;28;20046;-90
2021/05/11 00:20:33;;;;;;;16.23;9.10;;;13.90;99.90;;;;;;5018306;28;20045;-91
2021/05/11 00:23:00;;;;;;;11.15;9.48;;;13.90;99.90;;;;;;5034058;28;20045;-90
2021/05/11 00:25:27;;;;;;;10.30;9.20;;;13.80;99.90;;;;;;5001483;28;20065;-90
2021/05/11 00:27:54;;;;;;;10.95;8.52;;;13.80;99.90;;;;;;5017220;28;20137;-91
2021/05/11 00:30:21;;;;;;;11.70;9.02;;;13.80;99.90;;;;;;5024543;28;20124;-91
2021/05/11 00:32:49;;;;;;;11.80;9.23;;;13.80;99.90;;;;;;5017819;28;20426;-91
2021/05/11 00:35:16;;;;;;;11.90;9.52;;;13.80;99.90;;;;;;5025197;28;20052;-91
2021/05/11 00:37:43;;;;;;;11.02;9.15;;;13.60;99.90;;;;;;5024101;28;20103;-90
2021/05/11 00:40:10;;;;;;;9.95;8.23;;;13.80;99.90;;;;;;5020437;28;20477;-87
2021/05/11 00:42:38;;;;;;;9.13;8.13;;;13.70;99.90;;;;;;5020864;28;20051;-87
2021/05/11 00:45:06;;;;;;;9.75;8.65;;;13.80;99.90;;;;;;5035400;28;20413;-87
2021/05/11 00:47:33;;;;;;;11.32;8.40;;;13.80;99.90;;;;;;5035733;28;20084;-87
2021/05/11 00:50:00;;;;;;;10.40;8.73;;;13.80;99.90;;;;;;5034992;28;20041;-88
2021/05/11 00:52:28;;;;;;;10.98;9.25;;;13.90;99.90;;;;;;5036065;28;20473;-87
2021/05/11 00:54:55;;;;;;;12.70;9.55;;;13.80;99.90;;;;;;5035427;28;20048;-87
2021/05/11 00:57:23;;;;;;;11.82;9.45;;;13.80;99.90;;;;;;5036094;28;20041;-87
2021/05/11 00:59:51;;;;;;;12.23;10.05;;;13.80;99.90;;;;;;5035917;28;20046;-88
2021/05/11 01:02:18;;;;;;;12.65;9.65;;;13.80;99.90;;;;;;5036238;28;20096;-87
2021/05/11 01:04:45;;;;;;;12.77;9.00;;;13.80;99.90;;;;;;5052060;28;20102;-87
2021/05/11 01:07:11;;;;;;;14.40;9.88;;;13.80;99.90;;;;;;5035449;28;20046;-87
2021/05/11 01:09:38;;;;;;;12.55;9.23;;;13.80;99.90;;;;;;5036069;28;20045;-87
2021/05/11 01:12:05;;;;;;;13.10;8.52;;;13.70;99.90;;;;;;5035384;28;20579;-87
2021/05/11 01:14:32;;;;;;;10.57;9.07;;;13.80;99.90;;;;;;5019653;28;20067;-88
2021/05/11 01:17:00;;;;;;;10.77;8.82;;;13.80;99.90;;;;;;5051576;28;20046;-88
2021/05/11 01:19:50;;;;;;;12.57;8.55;;;13.80;99.90;;;;;;5035695;28;20054;-88
2021/05/11 01:25:00;;;;;;;10.43;7.10;;;13.80;99.90;;;;;;5051506;28;20486;-89
2021/05/11 01:44:16;;;;;;;16.23;7.00;;;13.80;99.90;;;;;;5036847;28;20493;-87
2021/05/11 01:47:02;;;;;;;20.80;8.75;;;13.80;99.90;;;;;;5037152;28;20100;-86
2021/05/11 01:53:36;;;;;;;13.83;7.10;;;13.70;99.90;;;;;;5039368;28;20123;-86
2021/05/11 02:25:13;;;;;;;7.50;4.15;;;13.50;99.90;;;;;;5050877;28;20464;-86
2021/05/11 02:27:40;;;;;;;7.95;4.22;;;13.50;99.90;;;;;;5050320;28;20042;-87
2021/05/11 02:30:08;;;;;;;8.65;5.13;;;13.50;99.90;;;;;;5050136;28;20045;-86
2021/05/11 02:32:40;;;;;;;9.75;4.45;;;13.50;99.90;;;;;;5033927;28;20046;-86
2021/05/11 02:35:12;;;;;;;8.82;4.60;;;13.50;99.90;;;;;;5034291;28;20041;-87
2021/05/11 02:37:40;;;;;;;8.50;4.85;;;13.50;99.90;;;;;;5050594;28;20094;-86
2021/05/11 02:40:09;;;;;;;8.30;5.60;;;13.50;99.90;;;;;;5033623;28;20053;-87
2021/05/11 02:42:37;;;;;;;10.00;6.47;;;13.50;99.90;;;;;;5034193;28;20042;-87
2021/05/11 02:45:10;;;;;;;10.25;6.72;;;13.60;99.90;;;;;;5067062;28;20056;-87
2021/05/11 02:47:47;;;;;;;12.63;7.68;;;13.60;99.90;;;;;;5035037;28;20120;-86
2021/05/11 02:50:22;;;;;;;21.92;7.20;;;13.50;99.90;;;;;;5034718;28;20048;-86
2021/05/11 02:52:49;;;;;;;22.48;9.18;;;13.60;99.90;;;;;;5033619;28;20048;-86
2021/05/11 02:55:18;;;;;;;11.50;7.47;;;13.60;99.90;;;;;;5033451;28;20041;-87
2021/05/11 02:57:45;;;;;;;31.75;10.43;;;13.60;99.90;;;;;;5050045;28;20052;-87
2021/05/11 03:00:17;;;;;;;17.00;9.27;;;13.50;99.90;;;;;;5049687;28;20193;-87
2021/05/11 03:02:45;;;;;;;16.42;9.75;;;13.50;99.90;;;;;;5050429;28;20052;-87
2021/05/11 03:05:13;;;;;;;14.43;9.85;;;13.50;99.90;;;;;;5050010;28;20502;-87
2021/05/11 03:07:40;;;;;;;13.05;8.40;;;13.50;99.90;;;;;;5034548;28;20076;-87
2021/05/11 03:10:08;;;;;;;11.82;9.32;;;13.50;99.90;;;;;;5050106;28;20068;-88
2021/05/11 03:12:36;;;;;;;13.52;9.60;;;13.50;99.90;;;;;;5050500;28;20042;-88
2021/05/11 03:15:04;;;;;;;21.20;10.68;;;13.50;99.90;;;;;;5053832;28;20103;-88
2021/05/11 03:17:36;;;;;;;12.10;8.45;;;13.50;99.90;;;;;;5039109;28;20041;-87
2021/05/11 03:20:05;;;;;;;12.85;9.18;;;13.40;99.90;;;;;;5054000;28;20046;-87
2021/05/11 03:22:34;;;;;;;13.02;9.07;;;13.40;99.90;;;;;;5038395;28;20044;-86
2021/05/11 03:25:01;;;;;;;15.68;10.00;;;13.40;99.90;;;;;;5037677;28;20581;-87
2021/05/11 03:27:28;;;;;;;13.23;8.77;;;13.40;99.90;;;;;;5037318;28;20120;-87
2021/05/11 03:29:54;;;;;;;16.77;9.77;;;13.30;99.90;;;;;;5037743;28;20053;-87
2021/05/11 03:32:21;;;;;;;15.10;10.27;;;13.40;99.90;;;;;;5021111;28;20386;-88
2021/05/11 03:34:48;;;;;;;18.38;10.68;;;13.40;99.90;;;;;;5021531;28;20132;-87
2021/05/11 03:37:15;;;;;;;13.27;9.55;;;13.30;99.90;;;;;;5053436;28;20049;-87
2021/05/11 03:39:43;;;;;;;13.75;9.95;;;13.40;99.90;;;;;;5053597;28;20056;-87
2021/05/11 03:42:26;;;;;;;13.13;9.68;;;13.40;99.90;;;;;;5021038;28;20044;-87
2021/05/11 03:44:56;;;;;;;17.50;11.27;;;13.40;99.90;;;;;;5039604;28;20378;-87
2021/05/11 03:47:25;;;;;;;13.60;10.65;;;13.40;99.90;;;;;;5037554;28;20076;-87
2021/05/11 03:49:52;;;;;;;15.70;10.50;;;13.40;99.90;;;;;;5021158;28;20136;-86
2021/05/11 03:52:19;;;;;;;15.40;10.65;;;13.40;99.90;;;;;;5036609;28;20073;-87
2021/05/11 03:54:45;;;;;;;15.25;10.27;;;13.40;99.90;;;;;;5036925;28;20053;-87
2021/05/11 03:57:13;;;;;;;16.42;11.68;;;13.40;99.90;;;;;;5036820;28;20046;-87
2021/05/11 03:59:40;;;;;;;17.00;10.90;;;13.40;99.90;;;;;;5036916;28;20478;-87
2021/05/11 04:02:06;;;;;;;13.13;10.55;;;13.40;99.90;;;;;;5037004;28;20050;-87
2021/05/11 04:04:33;;;;;;;13.90;9.25;;;13.50;99.90;;;;;;5036803;28;20103;-88
2021/05/11 04:07:00;;;;;;;12.75;8.68;;;13.50;99.90;;;;;;5036874;28;20052;-87
2021/05/11 04:09:35;;;;;;;14.70;10.35;;;13.40;99.90;;;;;;5020652;28;20564;-88
2021/05/11 04:12:43;;;;;;;15.30;9.37;;;13.40;99.90;;;;;;5038056;28;20069;-87
2021/05/11 04:17:44;;;;;;;14.73;9.30;;;13.50;99.90;;;;;;5055555;28;20052;-87
2021/05/11 04:20:12;;;;;;;11.07;8.20;;;13.40;99.90;;;;;;5020975;28;20284;-87
2021/05/11 04:22:39;;;;;;;13.70;8.50;;;13.40;99.90;;;;;;5052447;28;20053;-87
2021/05/11 04:25:06;;;;;;;12.80;8.65;;;13.40;99.90;;;;;;5034627;28;20041;-87
2021/05/11 04:27:33;;;;;;;11.57;8.52;;;13.40;99.90;;;;;;5035647;28;20477;-87
2021/05/11 04:30:03;;;;;;;13.25;9.05;;;13.40;99.90;;;;;;5052309;28;20041;-86
2021/05/11 04:32:34;;;;;;;10.98;8.55;;;13.40;99.90;;;;;;5069121;28;20050;-88
2021/05/11 04:35:01;;;;;;;8.65;6.70;;;13.40;99.90;;;;;;5020295;28;20048;-87
2021/05/11 04:37:28;;;;;;;9.32;6.35;;;13.40;99.90;;;;;;5019693;28;20120;-87
2021/05/11 04:39:54;;;;;;;6.80;5.50;;;13.40;99.90;;;;;;5036362;28;20093;-87
2021/05/11 04:42:23;;;;;;;10.65;6.47;;;13.40;99.90;;;;;;5019719;28;20045;-87
2021/05/11 04:44:51;;;;;;;9.73;7.30;;;13.40;99.90;;;;;;5035794;28;20045;-87
2021/05/11 04:47:28;;;;;;;9.38;7.28;;;13.40;99.90;;;;;;5051595;28;20410;-87
2021/05/11 04:49:58;;;;;;;7.95;6.15;;;13.40;99.90;;;;;;5022922;28;20410;-87
2021/05/11 04:52:25;;;;;;;8.65;6.45;;;13.40;99.90;;;;;;5035142;28;20084;-87
2021/05/11 04:54:51;;;;;;;7.45;5.43;;;13.40;99.90;;;;;;5019371;28;20057;-87
2021/05/11 04:57:18;;;;;;;8.48;6.00;;;13.40;99.90;;;;;;5035383;28;20504;-88
2021/05/11 04:59:45;;;;;;;7.35;5.85;;;13.40;99.90;;;;;;5020388;28;20053;-88
2021/05/11 05:02:12;;;;;;;9.10;6.78;;;13.40;99.90;;;;;;5035948;28;20111;-88
2021/05/11 05:04:39;;;;;;;9.52;6.88;;;13.40;99.90;;;;;;5019530;28;20072;-88
2021/05/11 05:07:05;;;;;;;10.43;6.30;;;13.40;99.90;;;;;;5036249;28;20041;-88
2021/05/11 05:09:32;;;;;;;8.38;5.35;;;13.40;99.90;;;;;;5019399;28;20473;-88
2021/05/11 05:11:59;;;;;;;7.53;4.22;;;13.30;99.90;;;;;;5019798;28;20050;-88
2021/05/11 05:14:26;;;;;;;7.97;3.90;;;13.30;99.90;;;;;;5019225;28;20127;-88
2021/05/11 05:16:53;;;;;;;5.13;3.72;;;13.30;99.90;;;;;;5019714;28;20064;-86
2021/05/11 05:19:34;;;;;;;7.13;3.63;;;13.20;99.90;;;;;;5038055;28;20061;-87
2021/05/11 05:22:02;;;;;;;5.30;3.35;;;13.20;99.90;;;;;;5035307;28;20046;-87
2021/05/11 05:24:42;;;;;;;6.07;4.18;;;13.20;99.90;;;;;;5034495;28;20588;-87
2021/05/11 05:29:38;;;;;;;6.82;4.10;;;13.20;99.90;;;;;;5051834;28;20486;-87
2021/05/11 05:32:06;;;;;;;10.32;5.15;;;13.20;99.90;;;;;;5019537;28;20052;-87
2021/05/11 05:34:33;;;;;;;11.95;5.50;;;13.20;99.90;;;;;;5048274;28;20054;-88
2021/05/11 05:37:00;;;;;;;8.05;5.88;;;13.20;99.90;;;;;;5016392;28;20038;-87
2021/05/11 05:39:38;;;;;;;9.73;6.03;;;13.20;99.90;;;;;;5029742;28;20378;-87
2021/05/11 05:42:05;;;;;;;11.20;7.18;;;13.20;99.90;;;;;;5051157;28;20460;-87
2021/05/11 05:44:33;;;;;;;11.20;6.82;;;13.20;99.90;;;;;;5018781;28;20168;-87
2021/05/11 05:47:00;;;;;;;11.55;8.27;;;13.20;99.90;;;;;;5051027;28;20037;-87
2021/05/11 05:49:40;;;;;;;12.57;8.18;;;13.20;99.90;;;;;;5023102;28;20054;-87
2021/05/11 05:52:10;;;;;;;15.32;9.80;;;13.30;99.90;;;;;;5011793;28;20486;-86
2021/05/11 05:54:38;;;;;;;11.13;8.50;;;13.20;99.90;;;;;;4980721;28;20078;-87
2021/05/11 05:57:07;;;;;;;9.35;6.53;;;13.20;99.90;;;;;;5008426;28;20048;-87
2021/05/11 05:59:42;;;;;;;9.85;5.40;;;13.30;99.90;;;;;;4996397;28;20066;-88
2021/05/11 06:02:15;;;;;;;6.53;4.10;;;13.30;99.90;;;;;;5034322;28;20406;-88
2021/05/11 06:04:47;;;;;;;9.60;4.75;;;13.20;99.90;;;;;;5017005;28;20042;-87
2021/05/11 06:07:16;;;;;;;8.00;4.50;;;13.30;99.90;;;;;;5048793;28;20100;-87
2021/05/11 06:09:44;;;;;;;8.15;4.53;;;13.20;99.90;;;;;;5046840;28;20474;-87
2021/05/11 06:17:30;;;;;;;5.70;3.88;;;13.20;99.90;;;;;;5030868;28;20046;-88
2021/05/11 06:19:57;;;;;;;6.90;4.40;;;13.20;99.90;;;;;;5031222;28;20509;-88
2021/05/11 06:22:24;;;;;;;7.57;4.55;;;13.20;99.90;;;;;;4999057;28;20409;-87
2021/05/11 06:24:50;;;;;;;9.88;4.85;;;13.20;99.90;;;;;;5030587;28;20042;-87
2021/05/11 06:27:18;;;;;;;7.10;4.40;;;13.20;99.90;;;;;;5031252;28;20138;-87
2021/05/11 06:29:46;;;;;;;7.28;3.42;;;13.30;99.90;;;;;;5030506;28;20042;-87
2021/05/11 06:32:13;;;;;;;7.43;3.67;;;13.30;99.90;;;;;;5016988;28;20034;-89
2021/05/11 06:34:47;;;;;;;6.47;2.97;;;13.30;99.90;;;;;;4998654;28;20100;-89
2021/05/11 06:37:14;;;;;;;7.47;3.72;;;13.30;99.90;;;;;;5016044;28;20054;-89
2021/05/11 06:39:45;;;;;;;7.13;3.70;;;13.30;99.90;;;;;;5013082;28;20469;-88
2021/05/11 06:42:17;;;;;;;9.98;4.90;;;13.20;99.90;;;;;;5002055;28;20128;-87
2021/05/11 06:53:13;;;;;;;9.65;7.38;;;13.30;99.90;;;;;;5038669;28;20053;-90
2021/05/11 06:55:42;;;;;;;10.80;8.27;;;13.30;99.90;;;;;;5037364;28;20562;-89
2021/05/11 06:58:09;;;;;;;13.50;9.40;;;13.40;99.90;;;;;;5005916;28;20061;-91
2021/05/11 07:00:42;;;;;;;12.45;10.02;;;13.40;99.90;;;;;;5037984;28;20046;-90
2021/05/11 07:03:09;;;;;;;12.85;9.38;;;13.40;99.90;;;;;;5022134;28;20402;-90
2021/05/11 07:05:36;;;;;;;12.70;10.70;;;13.40;99.90;;;;;;5021479;28;20054;-91
2021/05/11 07:10:41;;;;;;;14.43;10.38;;;13.50;99.90;;;;;;5037749;28;20129;-92
2021/05/11 07:13:13;;;;;;;12.02;9.77;;;13.50;99.90;;;;;;5006400;28;20053;-92
2021/05/11 07:15:42;;;;;;;15.80;11.98;;;13.50;99.90;;;;;;5037375;28;20049;-93
2021/05/11 07:18:15;;;;;;;19.35;13.18;;;13.60;99.90;;;;;;5037118;28;20455;-92
2021/05/11 07:20:47;;;;;;;16.15;12.82;;;13.60;99.90;;;;;;5005117;28;20065;-90
2021/05/11 07:23:18;;;;;;;15.07;13.30;;;13.70;99.90;;;;;;5054223;28;20445;-90
2021/05/11 07:31:01;;;;;;;16.10;12.40;;;13.70;99.90;;;;;;5054591;28;20108;-90
2021/05/11 07:33:33;;;;;;;12.35;11.00;;;13.70;99.90;;;;;;5055184;28;20486;-91
2021/05/11 07:36:00;;;;;;;14.38;11.80;;;13.70;99.90;;;;;;5040810;28;20060;-90
2021/05/11 07:38:27;;;;;;;15.43;12.30;;;13.70;99.90;;;;;;5057502;28;20041;-90
2021/05/11 07:40:55;;;;;;;14.35;12.00;;;13.70;99.90;;;;;;5056966;28;20183;-89
2021/05/11 07:43:24;;;;;;;12.10;10.73;;;13.70;99.90;;;;;;5057004;28;20045;-89
2021/05/11 08:05:11;;;;;;;8.38;6.25;;;14.00;99.90;;;;;;5043646;28;20481;-90
2021/05/11 08:15:37;;;;;;;6.53;5.00;;;14.40;99.90;;;;;;5051831;28;20133;-93
2021/05/11 08:28:44;;;;;;;4.72;2.45;;;14.50;99.90;;;;;;5049301;28;20045;-88
2021/05/11 08:31:11;;;;;;;5.32;2.10;;;14.50;99.90;;;;;;5033652;28;20050;-87
2021/05/11 08:33:38;;;;;;;4.55;1.77;;;14.60;99.90;;;;;;5028625;28;20563;-87
2021/05/11 08:36:05;;;;;;;3.38;1.70;;;14.60;99.90;;;;;;5019877;28;20572;-87
2021/05/11 08:38:32;;;;;;;3.15;1.45;;;14.60;99.90;;;;;;5026837;28;20414;-91
2021/05/11 08:41:02;;;;;;;4.30;1.40;;;14.60;99.90;;;;;;5034029;28;20261;-91
2021/05/11 08:43:35;;;;;;;7.13;1.77;;;14.60;99.90;;;;;;5025407;28;20050;-91
2021/05/11 08:46:04;;;;;;;5.05;1.80;;;14.60;99.90;;;;;;5036399;28;20528;-89
2021/05/11 08:48:32;;;;;;;5.40;1.80;;;14.60;99.90;;;;;;5052514;28;20125;-92
2021/05/11 08:51:20;;;;;;;4.65;1.65;;;14.60;99.90;;;;;;5052972;28;20052;-91
2021/05/11 09:00:12;;;;;;;4.45;2.10;;;14.80;99.90;;;;;;5026308;28;20052;-87
2021/05/11 09:16:37;;;;;;;1.85;1.15;;;15.20;99.90;;;;;;5015548;28;20443;-89
2021/05/11 10:49:21;;;;;;;2.95;1.27;;;16.60;99.90;;;;;;5034961;28;20057;-83
2021/05/11 10:52:41;;;;;;;;;;;;;;;;;;;;;
2021/05/11 10:56:24;;;;;;;;;;;;;;;;;;;;;
2021/05/11 10:59:59;;;;;;;4.45;1.58;;;16.50;99.90;;;;;;4928849;29;20087;-90
2021/05/11 11:05:02;;;;;;;3.15;1.50;;;16.80;99.90;;;;;;5047014;28;20409;-86
2021/05/11 11:07:40;;;;;;;3.53;1.50;;;16.90;99.90;;;;;;4999032;28;20049;-86
2021/05/11 11:10:08;;;;;;;4.75;1.70;;;16.90;99.90;;;;;;5029382;28;20057;-86
2021/05/11 11:12:38;;;;;;;3.30;1.38;;;16.70;99.90;;;;;;5012626;28;20049;-86
2021/05/11 11:15:14;;;;;;;3.25;1.50;;;16.70;99.90;;;;;;5049505;28;20049;-86
2021/05/11 11:17:43;;;;;;;3.60;1.23;;;16.60;99.90;;;;;;5037417;28;20042;-86
2021/05/11 11:20:13;;;;;;;2.88;1.40;;;16.50;99.90;;;;;;5013325;28;20410;-85
2021/05/11 11:25:27;;;;;;;2.17;1.10;;;16.30;99.90;;;;;;5012698;28;20050;-86
2021/05/11 11:27:54;;;;;;;2.25;1.20;;;16.30;99.90;;;;;;4993754;28;20054;-86
2021/05/11 11:30:21;;;;;;;4.63;1.20;;;16.30;99.90;;;;;;4994110;28;20453;-86
2021/05/11 11:32:49;;;;;;;3.92;1.20;;;16.40;99.90;;;;;;5009929;28;20043;-86
2021/05/11 11:35:17;;;;;;;3.17;1.52;;;16.50;99.90;;;;;;4995955;28;20057;-86
2021/05/11 11:37:46;;;;;;;3.75;1.40;;;16.60;99.90;;;;;;5013848;28;20065;-85
2021/05/11 11:40:16;;;;;;;5.68;1.30;;;16.60;99.90;;;;;;4997303;28;20383;-85
2021/05/11 11:42:43;;;;;;;2.33;0.90;;;16.60;99.90;;;;;;4998003;28;20069;-85
2021/05/11 11:45:24;;;;;;;2.50;1.27;;;16.70;99.90;;;;;;4997233;28;20051;-86
2021/05/11 11:48:00;;;;;;;2.17;1.00;;;16.60;99.90;;;;;;5013795;28;20045;-85
2021/05/11 11:50:31;;;;;;;1.98;1.10;;;16.50;99.90;;;;;;5002559;28;20070;-85
2021/05/11 11:53:05;;;;;;;3.78;1.33;;;16.40;99.90;;;;;;5016593;28;20077;-85
2021/05/11 11:58:26;;;;;;;6.20;1.30;;;16.30;99.90;;;;;;5035264;28;20049;-85
2021/05/11 12:00:53;;;;;;;3.25;1.08;;;16.20;99.90;;;;;;5033219;28;20050;-85
2021/05/11 12:03:24;;;;;;;2.42;1.00;;;16.20;99.90;;;;;;5032148;28;20049;-85
2021/05/11 12:05:53;;;;;;;2.67;1.20;;;16.20;99.90;;;;;;5006571;28;20042;-86
2021/05/11 12:08:30;;;;;;;2.55;1.10;;;16.20;99.90;;;;;;5000009;28;20076;-85
2021/05/11 12:11:05;;;;;;;2.75;1.23;;;16.20;99.90;;;;;;4997082;28;20084;-86
2021/05/11 12:13:37;;;;;;;2.00;1.10;;;16.20;99.90;;;;;;5017349;28;20053;-85
2021/05/11 12:16:22;;;;;;;1.92;1.10;;;16.20;99.90;;;;;;5029350;28;20384;-86
2021/05/11 12:19:09;;;;;;;3.78;1.25;;;16.10;99.90;;;;;;5024129;28;20053;-85
2021/05/11 12:21:50;;;;;;;2.67;1.30;;;16.10;99.90;;;;;;5057089;28;20046;-87
2021/05/11 12:24:17;;;;;;;4.80;1.50;;;15.90;99.90;;;;;;5052101;28;20244;-87
2021/05/11 12:26:45;;;;;;;3.38;1.30;;;15.80;99.90;;;;;;5020703;28;20057;-87
2021/05/11 12:29:15;;;;;;;5.53;1.38;;;15.80;99.90;;;;;;5019724;28;20057;-88
2021/05/11 12:31:45;;;;;;;2.85;1.40;;;15.70;99.90;;;;;;5052893;28;20038;-87
2021/05/11 12:34:14;;;;;;;4.60;1.60;;;15.60;99.90;;;;;;5048716;28;20401;-87
2021/05/11 12:37:01;;;;;;;3.03;1.35;;;15.60;99.90;;;;;;5052989;28;20049;-90
2021/05/11 12:39:41;;;;;;;2.67;1.40;;;15.50;99.90;;;;;;5050871;28;20057;-88
2021/05/11 12:42:20;;;;;;;2.42;1.30;;;15.50;99.90;;;;;;5004993;28;20053;-88
2021/05/11 12:45:04;;;;;;;2.50;1.27;;;15.40;99.90;;;;;;5013015;28;20047;-88
2021/05/11 12:47:43;;;;;;;3.00;1.45;;;15.30;99.90;;;;;;5012454;28;20563;-88
2021/05/11 12:50:24;;;;;;;3.30;1.30;;;15.30;99.90;;;;;;5029072;28;20039;-88
2021/05/11 12:52:52;;;;;;;2.80;1.33;;;15.20;99.90;;;;;;5013302;28;20042;-88
2021/05/11 12:58:30;;;;;;;4.88;1.98;;;15.00;99.90;;;;;;5030105;28;20057;-87
2021/05/11 13:01:07;;;;;;;3.50;1.70;;;15.00;99.90;;;;;;5029158;28;20390;-87
2021/05/11 13:04:08;;;;;;;3.42;1.70;;;14.90;99.90;;;;;;5014489;28;20042;-88
2021/05/11 13:17:16;;;;;;;2.77;1.50;;;14.60;99.90;;;;;;5002202;28;20050;-89
2021/05/11 13:20:05;;;;;;;3.65;1.48;;;14.60;99.90;;;;;;4984754;28;20137;-89
2021/05/11 13:22:41;;;;;;;3.13;1.40;;;14.70;99.90;;;;;;5003580;28;20061;-90
2021/05/11 13:25:23;;;;;;;7.10;1.60;;;14.70;99.90;;;;;;4999598;28;20046;-90
2021/05/11 13:30:46;;;;;;;2.47;1.20;;;14.70;99.90;;;;;;5015860;28;20122;-91
2021/05/11 13:33:24;;;;;;;2.83;1.33;;;14.70;99.90;;;;;;5028804;28;20051;-90
2021/05/11 13:35:51;;;;;;;2.92;1.30;;;14.60;99.90;;;;;;5014763;28;20054;-90
2021/05/11 13:38:18;;;;;;;3.72;1.50;;;14.50;99.90;;;;;;5012324;28;20050;-89
2021/05/11 13:40:44;;;;;;;4.47;2.25;;;14.40;99.90;;;;;;5013422;28;20139;-90
2021/05/11 13:43:12;;;;;;;3.28;1.40;;;14.40;99.90;;;;;;5012754;28;20054;-90
2021/05/11 13:45:39;;;;;;;6.35;1.33;;;14.30;99.90;;;;;;5012708;28;20046;-89
2021/05/11 13:48:17;;;;;;;2.42;1.40;;;14.30;99.90;;;;;;5029249;28;20109;-89
2021/05/11 13:51:01;;;;;;;3.45;1.60;;;14.30;99.90;;;;;;5029127;28;20097;-89
2021/05/11 13:53:30;;;;;;;2.35;1.40;;;14.30;99.90;;;;;;5029471;28;20046;-90
2021/05/11 13:56:12;;;;;;;3.10;1.50;;;14.30;99.90;;;;;;5029016;28;20054;-89
2021/05/11 14:01:38;;;;;;;3.67;1.73;;;14.20;99.90;;;;;;5029202;28;20042;-91
2021/05/11 14:04:07;;;;;;;3.30;1.67;;;14.10;99.90;;;;;;5012699;28;20489;-90
2021/05/11 14:06:34;;;;;;;5.25;1.90;;;14.10;99.90;;;;;;5034095;28;20099;-90
2021/05/11 14:09:00;;;;;;;3.85;1.83;;;14.10;99.90;;;;;;5005452;28;20042;-91
2021/05/11 14:11:27;;;;;;;4.00;1.70;;;14.10;99.90;;;;;;5016031;28;20105;-91
2021/05/11 14:13:58;;;;;;;3.88;1.80;;;14.10;99.90;;;;;;5000064;28;20040;-91
2021/05/11 14:16:25;;;;;;;3.42;1.90;;;14.30;99.90;;;;;;5015474;28;20088;-90
2021/05/11 14:18:52;;;;;;;2.85;1.48;;;14.10;99.90;;;;;;5022731;28;20058;-87
2021/05/11 14:21:19;;;;;;;4.35;2.00;;;14.10;99.90;;;;;;4998169;28;20060;-85
2021/05/11 14:23:46;;;;;;;3.00;1.40;;;14.10;99.90;;;;;;4998608;28;20141;-85
2021/05/11 14:26:13;;;;;;;3.17;1.35;;;14.00;99.90;;;;;;5030612;28;20061;-85
2021/05/11 14:28:40;;;;;;;4.07;1.60;;;14.10;99.90;;;;;;5030970;28;20037;-86
2021/05/11 14:31:07;;;;;;;4.55;2.60;;;14.00;99.90;;;;;;5030792;28;20056;-85
2021/05/11 14:33:33;;;;;;;2.63;1.30;;;14.10;99.90;;;;;;5014466;28;20046;-87
2021/05/11 14:36:00;;;;;;;4.20;1.80;;;14.10;99.90;;;;;;4998994;28;20406;-86
2021/05/11 14:38:27;;;;;;;3.20;1.10;;;14.10;99.90;;;;;;5030171;28;20052;-86
2021/05/11 14:41:01;;;;;;;3.35;1.20;;;14.10;99.90;;;;;;5042781;28;20168;-86
2021/05/11 14:43:30;;;;;;;2.65;1.40;;;14.10;99.90;;;;;;5031476;28;20061;-88
2021/05/11 14:46:04;;;;;;;3.10;1.20;;;14.20;99.90;;;;;;4998614;28;20049;-88
2021/05/11 14:48:33;;;;;;;4.05;1.60;;;14.10;99.90;;;;;;5035123;28;20045;-88
2021/05/11 14:51:01;;;;;;;3.47;1.23;;;14.10;99.90;;;;;;5051431;28;20065;-88
2021/05/11 14:53:28;;;;;;;2.60;1.10;;;14.10;99.90;;;;;;4998389;28;20049;-86
2021/05/11 14:55:55;;;;;;;3.15;1.10;;;14.10;99.90;;;;;;5030598;28;20077;-88
2021/05/11 14:58:22;;;;;;;3.70;1.13;;;14.10;99.90;;;;;;5014291;28;20069;-87
2021/05/11 15:00:52;;;;;;;3.45;1.30;;;14.10;99.90;;;;;;5031235;28;20129;-94
2021/05/11 15:03:20;;;;;;;5.45;1.60;;;14.10;99.90;;;;;;5016593;28;20042;-91
2021/05/11 15:05:47;;;;;;;3.38;1.23;;;14.00;99.90;;;;;;5014856;28;20108;-84
2021/05/11 15:08:13;;;;;;;3.95;1.27;;;14.10;99.90;;;;;;5010181;28;20138;-84
2021/05/11 15:10:40;;;;;;;4.15;1.90;;;14.20;99.90;;;;;;5033326;28;20073;-82
2021/05/11 15:13:07;;;;;;;4.40;1.52;;;14.20;99.90;;;;;;5001938;28;20420;-82
2021/05/11 15:15:36;;;;;;;4.38;1.38;;;14.30;99.90;;;;;;5018424;28;20097;-89
2021/05/11 15:18:04;;;;;;;4.55;1.50;;;14.30;99.90;;;;;;5021624;28;20132;-90
2021/05/11 15:20:33;;;;;;;4.55;1.88;;;14.20;99.90;;;;;;5049950;28;20061;-94
2021/05/11 15:23:02;;;;;;;4.10;1.75;;;14.20;99.90;;;;;;5029310;28;20061;-91
2021/05/11 15:26:10;;;;;;;4.32;2.00;;;14.30;99.90;;;;;;5023609;28;20050;-92
2021/05/11 15:28:45;;;;;;;3.60;1.73;;;14.30;99.90;;;;;;4989766;28;20117;-93
2021/05/11 15:31:12;;;;;;;4.82;1.80;;;14.20;99.90;;;;;;5023241;28;20073;-92
2021/05/11 15:36:17;;;;;;;5.05;2.03;;;14.00;99.90;;;;;;5167469;22;20053;-93
2021/05/11 15:38:44;;;;;;;5.93;1.80;;;14.00;99.90;;;;;;5020118;28;20145;-93
2021/05/11 15:41:19;;;;;;;5.95;2.10;;;14.00;99.90;;;;;;5005153;28;20054;-92
2021/05/11 15:44:01;;;;;;;7.25;2.00;;;14.00;99.90;;;;;;5042914;28;20059;-93
2021/05/11 15:46:29;;;;;;;4.88;2.00;;;13.90;99.90;;;;;;4996184;28;20133;-93
2021/05/11 15:48:59;;;;;;;5.65;1.95;;;13.90;99.90;;;;;;4988987;28;20100;-93
2021/05/11 15:51:26;;;;;;;5.85;2.08;;;13.90;99.90;;;;;;5018880;28;20081;-87
2021/05/11 15:53:53;;;;;;;5.65;1.90;;;13.90;99.90;;;;;;5035508;28;20041;-88
2021/05/11 15:56:20;;;;;;;5.75;1.92;;;14.10;99.90;;;;;;5034600;28;20132;-91
2021/05/11 15:58:50;;;;;;;5.63;2.00;;;13.90;99.90;;;;;;5002822;28;20117;-92
2021/05/11 16:01:16;;;;;;;4.60;1.90;;;14.00;99.90;;;;;;5035426;28;20052;-90
2021/05/11 16:03:43;;;;;;;6.18;2.03;;;14.00;99.90;;;;;;5002599;28;20054;-93
2021/05/11 16:06:12;;;;;;;4.72;1.95;;;14.00;99.90;;;;;;4986934;28;20145;-92
2021/05/11 16:08:41;;;;;;;5.88;2.20;;;14.00;99.90;;;;;;4983095;28;20054;-93
2021/05/11 16:11:07;;;;;;;4.72;2.10;;;14.00;99.90;;;;;;4983412;28;20070;-92
2021/05/11 16:13:39;;;;;;;4.70;2.10;;;14.00;99.90;;;;;;5014167;28;20073;-93
2021/05/11 16:16:06;;;;;;;4.40;2.10;;;14.00;99.90;;;;;;5006124;28;20049;-93
2021/05/11 16:18:33;;;;;;;7.18;2.42;;;14.00;99.90;;;;;;5021051;28;20045;-91
2021/05/11 16:21:00;;;;;;;6.47;2.75;;;14.00;99.90;;;;;;5053246;28;20042;-90
2021/05/11 16:23:27;;;;;;;5.30;2.45;;;13.90;99.90;;;;;;5021534;28;20100;-89
2021/05/11 16:25:54;;;;;;;6.15;3.00;;;13.90;99.90;;;;;;5021588;28;20037;-89
2021/05/11 16:28:20;;;;;;;7.45;3.03;;;13.90;99.90;;;;;;5018496;28;20099;-90
2021/05/11 16:30:47;;;;;;;6.60;2.75;;;13.80;99.90;;;;;;5021453;28;20478;-92
2021/05/11 16:33:15;;;;;;;6.68;2.50;;;13.80;99.90;;;;;;5021566;28;20140;-92
2021/05/11 16:35:42;;;;;;;4.38;2.00;;;13.80;99.90;;;;;;5053121;28;20054;-91
2021/05/11 16:38:10;;;;;;;5.68;2.28;;;13.70;99.90;;;;;;5031924;28;20046;-91
2021/05/11 16:40:37;;;;;;;6.03;2.20;;;13.70;99.90;;;;;;5005000;28;20425;-90
2021/05/11 16:43:05;;;;;;;4.22;2.13;;;13.70;99.90;;;;;;5021675;28;20057;-93
2021/05/11 16:45:32;;;;;;;6.50;2.70;;;13.60;99.90;;;;;;5021763;28;20046;-92
2021/05/11 16:48:00;;;;;;;5.65;2.15;;;13.60;99.90;;;;;;5023111;28;20045;-92
2021/05/11 16:50:29;;;;;;;5.57;2.53;;;13.60;99.90;;;;;;5053147;28;20069;-92
2021/05/11 16:52:58;;;;;;;5.28;2.58;;;13.70;99.90;;;;;;5054097;28;20029;-91
2021/05/11 16:55:26;;;;;;;6.10;2.28;;;13.50;99.90;;;;;;5037375;28;20056;-92
2021/05/11 16:57:53;;;;;;;9.15;2.50;;;13.40;99.90;;;;;;5053122;28;20493;-93
2021/05/11 17:00:21;;;;;;;5.80;2.42;;;13.40;99.90;;;;;;5052971;28;20048;-91
2021/05/11 17:02:48;;;;;;;5.95;2.50;;;13.40;99.90;;;;;;5037966;28;20485;-90
2021/05/11 17:05:15;;;;;;;8.23;2.67;;;13.30;99.90;;;;;;5004465;28;20049;-92
2021/05/11 17:07:42;;;;;;;4.93;2.60;;;13.30;99.90;;;;;;5036557;28;20057;-91
2021/05/11 17:10:09;;;;;;;5.10;2.90;;;13.30;99.90;;;;;;5084985;28;20041;-92
2021/05/11 17:12:37;;;;;;;8.52;3.05;;;13.30;99.90;;;;;;5020539;28;20397;-92
2021/05/11 17:15:05;;;;;;;6.60;3.50;;;13.30;99.90;;;;;;5020972;28;20053;-92
2021/05/11 17:17:32;;;;;;;7.55;3.85;;;13.20;99.90;;;;;;5020703;28;20072;-90
2021/05/11 17:19:59;;;;;;;10.13;5.20;;;13.20;99.90;;;;;;5048119;28;20104;-78